Time;durP1;ratioP1;P1;durP2;ratioP2;P2;SDS_P1;SDS_P2;PMS_P1;PMS_P2;Temp;Humidity;BMP_temperature;BMP_pressure;BME280_temperature;BME280_humidity;BME280_pressure;Samples;Min_cycle;Max_cycle;Signal;HPM_P1;HPM_P2
2021/10/07 00:00:09;;;;;;;24.55;15.90;;;;;;;11.46;100.00;100615.44;5133720;27;20043;-68
2021/10/07 00:02:38;;;;;;;21.98;14.88;;;;;;;11.59;100.00;100617.41;5133328;27;20044;-68
2021/10/07 00:05:09;;;;;;;22.30;16.23;;;;;;;11.49;100.00;100624.25;5133705;27;20049;-68
2021/10/07 00:07:37;;;;;;;21.60;15.85;;;;;;;11.38;100.00;100617.69;5133405;27;20043;-68
2021/10/07 00:10:08;;;;;;;23.25;15.13;;;;;;;11.41;100.00;100625.53;5133845;27;20403;-68
2021/10/07 00:12:37;;;;;;;23.02;16.25;;;;;;;11.38;100.00;100617.69;5133461;27;20051;-68
2021/10/07 00:15:06;;;;;;;23.20;15.77;;;;;;;11.27;100.00;100625.44;5133701;27;20047;-68
2021/10/07 00:17:40;;;;;;;23.30;16.15;;;;;;;11.27;100.00;100625.44;5133259;27;20441;-68
2021/10/07 00:20:14;;;;;;;26.77;15.77;;;;;;;11.42;100.00;100624.59;5133704;27;20049;-69
2021/10/07 00:22:43;;;;;;;23.13;16.00;;;;;;;11.39;100.00;100627.44;5133262;27;20134;-69
2021/10/07 00:25:14;;;;;;;21.55;16.23;;;;;;;11.42;100.00;100626.41;5133543;27;20147;-69
2021/10/07 00:27:43;;;;;;;23.20;15.18;;;;;;;11.44;100.00;100629.84;5133151;27;20058;-70
2021/10/07 00:30:15;;;;;;;22.63;14.88;;;;;;;11.51;100.00;100625.88;5132111;28;20051;-71
2021/10/07 00:32:50;;;;;;;23.55;15.52;;;;;;;11.47;100.00;100626.97;5133460;27;20043;-71
2021/10/07 00:35:43;;;;;;;20.50;14.35;;;;;;;11.48;100.00;100626.03;5133808;27;20039;-70
2021/10/07 00:40:59;;;;;;;23.58;15.02;;;;;;;11.34;100.00;100623.31;5132376;28;20044;-70
2021/10/07 00:43:29;;;;;;;25.97;15.73;;;;;;;11.48;100.00;100623.34;5133276;27;20047;-79
2021/10/07 00:46:01;;;;;;;24.70;14.98;;;;;;;11.41;100.00;100617.53;5133416;27;20336;-70
2021/10/07 00:48:29;;;;;;;26.23;15.68;;;;;;;11.38;100.00;100623.03;5133371;27;20085;-78
2021/10/07 00:50:58;;;;;;;21.67;14.73;;;;;;;11.36;100.00;100629.41;5133247;27;20039;-70
2021/10/07 00:53:26;;;;;;;23.27;15.93;;;;;;;11.37;100.00;100631.13;5133494;27;20100;-70
2021/10/07 00:55:55;;;;;;;23.15;15.77;;;;;;;11.28;100.00;100632.50;5133037;27;20074;-70
2021/10/07 00:58:25;;;;;;;21.02;15.88;;;;;;;11.22;100.00;100635.56;5134839;27;20480;-70
2021/10/07 01:00:54;;;;;;;25.33;16.20;;;;;;;11.21;100.00;100636.50;5136484;27;20050;-71
2021/10/07 01:03:22;;;;;;;24.15;14.98;;;;;;;11.44;100.00;100638.72;5136696;27;20035;-72
2021/10/07 01:05:51;;;;;;;19.98;14.95;;;;;;;11.64;100.00;100629.53;5136365;27;20043;-71
2021/10/07 01:08:19;;;;;;;26.27;16.92;;;;;;;11.50;100.00;100637.50;5136814;27;20035;-71
2021/10/07 01:10:48;;;;;;;22.13;15.52;;;;;;;11.45;100.00;100640.44;5136360;27;20043;-71
2021/10/07 01:13:16;;;;;;;25.48;16.40;;;;;;;11.34;100.00;100642.00;5136720;27;20043;-71
2021/10/07 01:15:46;;;;;;;22.83;15.77;;;;;;;11.33;100.00;100638.47;5136458;27;20039;-71
2021/10/07 01:18:14;;;;;;;25.90;16.80;;;;;;;11.29;100.00;100642.28;5136487;27;20096;-71
2021/10/07 01:20:44;;;;;;;22.83;15.65;;;;;;;11.52;100.00;100648.09;5136435;27;20047;-71
2021/10/07 01:23:14;;;;;;;23.50;14.98;;;;;;;11.51;100.00;100643.72;5136635;27;20035;-71
2021/10/07 01:25:43;;;;;;;24.30;16.60;;;;;;;11.40;100.00;100653.19;5136083;27;20126;-71
2021/10/07 01:28:11;;;;;;;24.90;16.77;;;;;;;11.23;100.00;100660.44;5136223;27;20395;-72
2021/10/07 01:30:42;;;;;;;26.85;16.48;;;;;;;11.16;100.00;100658.09;5135915;27;20043;-71
2021/10/07 01:33:11;;;;;;;25.00;16.55;;;;;;;11.14;100.00;100665.34;5136388;27;20086;-71
2021/10/07 01:35:39;;;;;;;27.42;17.55;;;;;;;11.15;100.00;100669.72;5136139;27;20073;-70
2021/10/07 01:38:08;;;;;;;24.48;17.20;;;;;;;11.21;100.00;100663.19;5136247;27;20080;-69
2021/10/07 01:40:37;;;;;;;24.70;17.52;;;;;;;11.29;100.00;100658.28;5135890;27;20449;-70
2021/10/07 01:43:07;;;;;;;24.33;16.60;;;;;;;11.46;100.00;100651.97;5136057;27;20040;-68
2021/10/07 01:45:36;;;;;;;24.67;16.88;;;;;;;11.42;100.00;100656.63;5136015;27;20043;-70
2021/10/07 01:48:05;;;;;;;25.92;17.15;;;;;;;11.36;100.00;100659.66;5136213;27;20047;-69
2021/10/07 01:50:34;;;;;;;25.33;17.33;;;;;;;11.27;100.00;100656.63;5135758;27;20039;-75
2021/10/07 01:53:02;;;;;;;30.13;17.85;;;;;;;11.20;100.00;100650.81;5134564;27;20051;-70
2021/10/07 01:55:32;;;;;;;29.02;18.88;;;;;;;11.19;100.00;100654.41;5136007;27;20043;-68
2021/10/07 01:58:00;;;;;;;27.20;17.83;;;;;;;11.18;100.00;100653.53;5135696;27;20050;-68
2021/10/07 02:00:29;;;;;;;23.27;16.50;;;;;;;11.24;100.00;100663.03;5135673;27;20038;-68
2021/10/07 02:02:57;;;;;;;24.15;17.17;;;;;;;11.33;100.00;100656.31;5135207;27;20043;-68
2021/10/07 02:05:25;;;;;;;24.25;16.45;;;;;;;11.45;100.00;100651.09;5135790;27;20100;-67
2021/10/07 02:07:53;;;;;;;24.25;16.20;;;;;;;11.34;100.00;100647.34;5135281;27;20047;-69
2021/10/07 02:10:22;;;;;;;24.42;16.05;;;;;;;11.47;100.00;100657.22;5134016;27;20476;-68
2021/10/07 02:12:52;;;;;;;23.92;16.25;;;;;;;11.39;100.00;100655.97;5135288;27;20403;-69
2021/10/07 02:15:20;;;;;;;25.80;16.42;;;;;;;11.28;100.00;100651.22;5135374;27;20503;-69
2021/10/07 02:17:51;;;;;;;22.85;15.88;;;;;;;11.23;100.00;100655.97;5135146;27;20041;-70
2021/10/07 02:20:19;;;;;;;22.27;15.88;;;;;;;11.37;100.00;100666.72;5135235;27;20496;-68
2021/10/07 02:22:48;;;;;;;22.02;15.10;;;;;;;11.45;100.00;100661.78;5134851;27;20066;-69
2021/10/07 02:25:16;;;;;;;24.13;15.82;;;;;;;11.39;100.00;100664.84;5135224;27;20035;-69
2021/10/07 02:27:44;;;;;;;24.23;15.55;;;;;;;11.48;100.00;100666.09;5135168;27;20045;-71
2021/10/07 02:30:18;;;;;;;23.08;15.40;;;;;;;11.33;100.00;100670.50;5135374;27;20039;-71
2021/10/07 02:32:47;;;;;;;21.92;14.57;;;;;;;11.33;100.00;100678.53;5135296;27;20061;-70
2021/10/07 02:35:16;;;;;;;22.98;16.25;;;;;;;11.26;100.00;100677.13;5135309;27;20042;-69
2021/10/07 02:37:45;;;;;;;24.13;16.13;;;;;;;11.21;100.00;100681.03;5134748;27;20077;-69
2021/10/07 02:40:16;;;;;;;22.75;15.32;;;;;;;11.34;100.00;100685.59;5135499;27;20054;-69
2021/10/07 02:42:45;;;;;;;24.77;16.75;;;;;;;11.21;100.00;100679.22;5134582;27;20050;-69
2021/10/07 02:45:19;;;;;;;25.40;17.10;;;;;;;11.19;100.00;100678.41;5134768;27;20043;-69
2021/10/07 02:47:48;;;;;;;25.23;16.67;;;;;;;11.27;100.00;100676.19;5134706;27;20054;-69
2021/10/07 02:50:16;;;;;;;26.88;16.60;;;;;;;11.16;100.00;100675.94;5134945;27;20373;-69
2021/10/07 02:52:45;;;;;;;26.15;16.77;;;;;;;11.20;100.00;100687.31;5134408;27;20373;-69
2021/10/07 02:55:14;;;;;;;26.13;15.15;;;;;;;11.33;100.00;100689.22;5134788;27;20050;-69
2021/10/07 02:57:45;;;;;;;23.77;15.88;;;;;;;11.47;100.00;100686.59;5134257;27;20050;-69
2021/10/07 03:00:15;;;;;;;24.27;16.38;;;;;;;11.32;100.00;100676.81;5134658;27;20540;-68
2021/10/07 03:02:45;;;;;;;24.13;16.17;;;;;;;11.35;100.00;100684.63;5134171;27;20078;-69
2021/10/07 03:05:14;;;;;;;24.58;15.70;;;;;;;11.35;100.00;100686.44;5134530;27;20081;-69
2021/10/07 03:07:42;;;;;;;22.65;15.82;;;;;;;11.50;100.00;100682.91;5134017;27;20115;-69
2021/10/07 03:10:11;;;;;;;23.60;15.73;;;;;;;11.46;100.00;100684.03;5134387;27;20043;-68
2021/10/07 03:12:40;;;;;;;24.35;16.77;;;;;;;11.32;100.00;100686.63;5133935;27;20043;-72
2021/10/07 03:15:09;;;;;;;23.77;15.77;;;;;;;11.33;100.00;100686.53;5134146;27;20064;-68
2021/10/07 03:17:38;;;;;;;25.58;17.20;;;;;;;11.20;100.00;100680.19;5134135;27;20126;-68
2021/10/07 03:20:11;;;;;;;25.08;16.35;;;;;;;11.26;100.00;100686.97;5133868;27;20047;-69
2021/10/07 03:22:40;;;;;;;21.42;16.08;;;;;;;11.27;100.00;100689.53;5132959;27;20039;-77
2021/10/07 03:25:09;;;;;;;25.73;16.42;;;;;;;11.23;100.00;100684.47;5133969;27;20412;-71
2021/10/07 03:27:38;;;;;;;25.40;16.63;;;;;;;11.32;100.00;100679.47;5134334;27;20043;-70
2021/10/07 03:30:07;;;;;;;25.20;15.05;;;;;;;11.28;100.00;100677.91;5134360;27;20035;-69
2021/10/07 03:32:36;;;;;;;24.63;16.50;;;;;;;11.01;100.00;100680.34;5134062;27;20407;-69
2021/10/07 03:35:05;;;;;;;23.67;15.90;;;;;;;11.09;100.00;100675.41;5133693;27;20035;-68
2021/10/07 03:37:37;;;;;;;24.80;15.75;;;;;;;11.11;100.00;100678.88;5133818;27;20050;-69
2021/10/07 03:40:07;;;;;;;24.10;16.42;;;;;;;10.98;100.00;100666.28;5133865;27;20421;-70
2021/10/07 03:42:36;;;;;;;26.23;16.20;;;;;;;11.09;100.00;100677.22;5133925;27;20035;-70
2021/10/07 03:45:05;;;;;;;23.75;14.45;;;;;;;11.18;100.00;100677.56;5133612;27;20050;-71
2021/10/07 03:47:34;;;;;;;24.88;16.45;;;;;;;11.14;100.00;100677.84;5133946;27;20043;-70
2021/10/07 03:50:05;;;;;;;27.35;17.67;;;;;;;11.04;100.00;100676.63;5133594;27;20046;-70
2021/10/07 03:52:34;;;;;;;23.25;16.73;;;;;;;11.07;100.00;100673.78;5132397;28;20479;-69
2021/10/07 03:55:03;;;;;;;24.67;16.63;;;;;;;11.07;100.00;100673.78;5133413;27;20047;-69
2021/10/07 03:57:32;;;;;;;25.63;16.38;;;;;;;11.05;100.00;100678.34;5133874;27;20090;-69
2021/10/07 04:00:00;;;;;;;25.75;15.65;;;;;;;11.25;100.00;100686.09;5133413;27;20043;-69
2021/10/07 04:02:28;;;;;;;23.42;15.85;;;;;;;11.18;100.00;100674.03;5133615;27;20040;-70
2021/10/07 04:04:56;;;;;;;26.15;17.15;;;;;;;11.14;100.00;100675.16;5133555;28;20046;-69
2021/10/07 04:07:24;;;;;;;24.40;16.02;;;;;;;11.09;100.00;100669.22;5133679;27;20082;-68
2021/10/07 04:09:54;;;;;;;26.70;16.05;;;;;;;11.13;100.00;100670.78;5133489;27;20038;-68
2021/10/07 04:12:22;;;;;;;23.40;14.98;;;;;;;11.18;100.00;100674.03;5133737;27;20556;-67
2021/10/07 04:14:53;;;;;;;25.05;16.23;;;;;;;11.06;100.00;100680.06;5133268;27;20514;-67
2021/10/07 04:17:22;;;;;;;25.63;16.02;;;;;;;11.03;100.00;100680.25;5133778;27;20039;-70
2021/10/07 04:19:50;;;;;;;25.13;17.17;;;;;;;11.16;100.00;100679.47;5133220;27;20381;-70
2021/10/07 04:22:19;;;;;;;26.95;16.27;;;;;;;11.15;100.00;100690.22;5133541;27;20059;-70
2021/10/07 04:24:47;;;;;;;23.02;14.93;;;;;;;11.13;100.00;100686.78;5132842;27;20484;-69
2021/10/07 04:27:19;;;;;;;27.02;17.13;;;;;;;11.06;100.00;100690.75;5133306;27;20051;-69
2021/10/07 04:29:48;;;;;;;23.80;15.85;;;;;;;11.08;100.00;100689.69;5133063;28;20438;-69
2021/10/07 04:32:16;;;;;;;22.45;14.65;;;;;;;11.11;100.00;100691.38;5134913;27;20055;-69
2021/10/07 04:34:47;;;;;;;23.23;15.40;;;;;;;11.16;100.00;100695.47;5137207;27;20043;-67
2021/10/07 04:37:15;;;;;;;26.15;16.52;;;;;;;11.14;100.00;100696.53;5137396;27;20122;-68
2021/10/07 04:39:43;;;;;;;22.40;15.70;;;;;;;10.99;100.00;100694.69;5137354;27;20039;-68
2021/10/07 04:42:11;;;;;;;26.10;16.88;;;;;;;10.91;100.00;100695.13;5137158;27;20118;-69
2021/10/07 04:44:41;;;;;;;28.92;17.08;;;;;;;11.03;100.00;100701.59;5137221;27;20054;-70
2021/10/07 04:47:10;;;;;;;23.30;15.98;;;;;;;11.08;100.00;100696.84;5136804;27;20043;-68
2021/10/07 04:49:45;;;;;;;25.00;17.85;;;;;;;11.00;100.00;100699.06;5137438;27;20066;-67
2021/10/07 04:52:13;;;;;;;24.25;16.42;;;;;;;11.02;100.00;100699.88;5136984;27;20161;-67
2021/10/07 04:54:41;;;;;;;22.33;14.88;;;;;;;11.26;100.00;100698.50;5136739;27;20406;-67
2021/10/07 04:57:09;;;;;;;20.17;14.27;;;;;;;11.12;100.00;100698.44;5135393;27;20134;-67
2021/10/07 04:59:38;;;;;;;23.95;16.33;;;;;;;11.15;100.00;100698.25;5137032;27;20122;-67
2021/10/07 05:02:07;;;;;;;25.95;16.55;;;;;;;11.07;100.00;100709.34;5136591;27;20062;-67
2021/10/07 05:04:36;;;;;;;22.33;14.68;;;;;;;11.13;100.00;100703.69;5136909;27;20058;-68
2021/10/07 05:07:05;;;;;;;21.83;14.60;;;;;;;11.15;100.00;100708.94;5136263;27;20047;-69
2021/10/07 05:09:34;;;;;;;25.70;15.45;;;;;;;11.20;100.00;100706.88;5136386;27;20095;-69
2021/10/07 05:12:02;;;;;;;22.45;15.02;;;;;;;11.15;100.00;100706.25;5136128;27;20084;-70
2021/10/07 05:14:30;;;;;;;23.95;14.70;;;;;;;11.19;100.00;100713.13;5136468;27;20039;-69
2021/10/07 05:16:58;;;;;;;24.08;15.38;;;;;;;11.18;100.00;100717.63;5135846;27;20475;-69
2021/10/07 05:19:33;;;;;;;21.55;14.48;;;;;;;11.13;100.00;100716.16;5136662;27;20039;-69
2021/10/07 05:22:01;;;;;;;21.23;14.00;;;;;;;11.14;100.00;100712.53;5136202;27;20429;-69
2021/10/07 05:24:30;;;;;;;20.13;14.38;;;;;;;11.11;100.00;100715.41;5136072;27;20054;-69
2021/10/07 05:26:59;;;;;;;22.38;14.75;;;;;;;11.06;100.00;100717.44;5136178;27;20047;-69
2021/10/07 05:29:27;;;;;;;22.58;14.93;;;;;;;11.08;100.00;100723.53;5136378;27;20035;-69
2021/10/07 05:31:55;;;;;;;22.13;13.98;;;;;;;11.16;100.00;100722.19;5135928;27;20066;-69
2021/10/07 05:34:23;;;;;;;22.55;14.00;;;;;;;11.17;100.00;100723.91;5136182;27;20046;-69
2021/10/07 05:36:53;;;;;;;20.90;14.77;;;;;;;11.04;100.00;100724.69;5136024;27;20039;-70
2021/10/07 05:39:22;;;;;;;23.48;14.55;;;;;;;11.10;100.00;100719.88;5136112;27;20043;-69
2021/10/07 05:41:50;;;;;;;21.65;13.65;;;;;;;11.17;100.00;100723.91;5135705;27;20388;-74
2021/10/07 05:44:18;;;;;;;23.30;14.98;;;;;;;11.17;100.00;100715.91;5135000;27;20046;-70
2021/10/07 05:46:47;;;;;;;23.15;14.55;;;;;;;11.15;100.00;100727.63;5134513;27;20055;-70
2021/10/07 05:49:20;;;;;;;23.67;15.18;;;;;;;11.07;100.00;100716.50;5135877;27;20035;-69
2021/10/07 05:51:48;;;;;;;23.20;15.65;;;;;;;11.01;100.00;100720.38;5135499;27;20043;-69
2021/10/07 05:54:19;;;;;;;25.17;16.65;;;;;;;11.04;100.00;100724.69;5135736;27;20047;-70
2021/10/07 05:56:50;;;;;;;26.48;16.77;;;;;;;11.15;100.00;100722.28;5135620;27;20063;-69
2021/10/07 05:59:18;;;;;;;24.30;14.68;;;;;;;11.16;100.00;100726.66;5135196;27;20035;-69
2021/10/07 06:01:48;;;;;;;23.50;15.80;;;;;;;11.08;100.00;100726.22;5135734;27;20491;-69
2021/10/07 06:04:17;;;;;;;21.55;15.13;;;;;;;11.18;100.00;100727.44;5135468;27;20050;-69
2021/10/07 06:06:45;;;;;;;23.75;15.52;;;;;;;11.18;100.00;100730.09;5134154;27;20043;-69
2021/10/07 06:09:14;;;;;;;20.92;14.18;;;;;;;11.10;100.00;100729.69;5135218;27;20100;-69
2021/10/07 06:11:44;;;;;;;22.67;14.68;;;;;;;11.08;100.00;100750.25;5135306;27;20047;-68
2021/10/07 06:14:12;;;;;;;25.55;15.48;;;;;;;11.18;100.00;100748.78;5135021;27;20066;-69
2021/10/07 06:16:40;;;;;;;24.55;15.18;;;;;;;11.14;100.00;100749.94;5135176;27;20046;-68
2021/10/07 06:19:11;;;;;;;24.27;15.00;;;;;;;11.15;100.00;100748.97;5135296;27;20074;-68
2021/10/07 06:21:39;;;;;;;21.30;13.43;;;;;;;11.30;100.00;100755.28;5135253;27;20099;-68
2021/10/07 06:24:07;;;;;;;22.77;14.85;;;;;;;11.34;100.00;100763.03;5134889;27;20035;-68
2021/10/07 06:26:38;;;;;;;23.77;13.60;;;;;;;11.27;100.00;100752.78;5134845;27;20050;-68
2021/10/07 06:29:08;;;;;;;21.48;13.63;;;;;;;11.33;100.00;100763.13;5135028;27;20054;-68
2021/10/07 06:31:38;;;;;;;22.52;13.43;;;;;;;11.45;100.00;100757.97;5135234;27;20051;-69
2021/10/07 06:34:07;;;;;;;24.50;14.48;;;;;;;11.36;100.00;100763.81;5134723;27;20049;-68
2021/10/07 06:36:36;;;;;;;22.33;14.20;;;;;;;11.51;100.00;100763.94;5134968;27;20043;-69
2021/10/07 06:39:06;;;;;;;20.42;14.32;;;;;;;11.37;100.00;100762.84;5136110;27;20072;-68
2021/10/07 06:41:34;;;;;;;22.50;14.60;;;;;;;11.49;100.00;100764.00;5134944;27;20046;-69
2021/10/07 06:44:03;;;;;;;20.20;13.68;;;;;;;11.52;100.00;100769.19;5134714;27;20043;-69
2021/10/07 06:46:32;;;;;;;25.00;14.93;;;;;;;11.51;100.00;100766.59;5134832;27;20050;-69
2021/10/07 06:49:00;;;;;;;23.88;15.65;;;;;;;11.54;100.00;100769.09;5134442;27;20050;-69
2021/10/07 06:51:30;;;;;;;22.10;14.27;;;;;;;11.67;100.00;100767.44;5134665;27;20047;-68
2021/10/07 06:54:00;;;;;;;21.85;14.85;;;;;;;11.69;100.00;100770.91;5134544;27;20510;-69
2021/10/07 06:56:31;;;;;;;21.83;11.75;;;;;;;11.82;100.00;100752.38;5133972;27;20066;-68
2021/10/07 06:59:00;;;;;;;20.75;13.32;;;;;;;11.81;100.00;100770.25;5133008;27;20126;-69
2021/10/07 07:01:29;;;;;;;21.45;13.68;;;;;;;11.75;100.00;100778.56;5134521;27;20035;-68
2021/10/07 07:03:59;;;;;;;19.20;13.30;;;;;;;11.81;100.00;100780.94;5134211;27;20050;-70
2021/10/07 07:06:29;;;;;;;22.48;14.07;;;;;;;11.64;100.00;100784.50;5134479;27;20039;-68
2021/10/07 07:08:57;;;;;;;24.55;14.60;;;;;;;11.71;100.00;100782.38;5134260;27;20071;-67
2021/10/07 07:11:27;;;;;;;21.75;13.95;;;;;;;11.80;100.00;100787.22;5134029;27;20042;-68
2021/10/07 07:13:56;;;;;;;23.55;13.00;;;;;;;11.88;100.00;100790.34;5133917;27;20066;-67
2021/10/07 07:16:24;;;;;;;23.95;15.27;;;;;;;11.84;100.00;100786.09;5133544;27;20043;-67
2021/10/07 07:18:53;;;;;;;23.13;15.32;;;;;;;11.71;100.00;100791.25;5133515;27;20043;-67
2021/10/07 07:21:25;;;;;;;22.85;13.25;;;;;;;11.83;100.00;100789.72;5133562;27;20141;-67
2021/10/07 07:23:54;;;;;;;26.60;15.43;;;;;;;11.92;100.00;100786.53;5133544;27;20159;-66
2021/10/07 07:26:22;;;;;;;20.30;13.30;;;;;;;11.87;100.00;100793.94;5132901;27;20135;-67
2021/10/07 07:28:53;;;;;;;20.65;13.65;;;;;;;11.80;100.00;100795.25;5132902;27;20508;-67
2021/10/07 07:31:22;;;;;;;19.60;13.05;;;;;;;11.86;100.00;100799.34;5133327;27;20047;-67
2021/10/07 07:33:51;;;;;;;21.73;13.40;;;;;;;11.99;100.00;100795.91;5133994;27;20536;-67
2021/10/07 07:36:20;;;;;;;19.35;12.20;;;;;;;12.09;100.00;100804.28;5133617;27;20039;-68
2021/10/07 07:38:50;;;;;;;18.65;12.00;;;;;;;12.08;100.00;100804.38;5134019;27;20066;-68
2021/10/07 07:41:35;;;;;;;19.33;12.38;;;;;;;12.13;100.00;100802.28;5133788;27;20557;-68
2021/10/07 07:44:03;;;;;;;22.13;12.60;;;;;;;12.12;100.00;100805.91;5133583;27;20475;-68
2021/10/07 07:46:33;;;;;;;23.23;13.95;;;;;;;12.22;100.00;100807.94;5133876;27;20046;-67
2021/10/07 07:49:01;;;;;;;25.63;12.50;;;;;;;12.23;100.00;100814.16;5133548;27;20480;-68
2021/10/07 07:51:32;;;;;;;19.70;12.35;;;;;;;12.14;100.00;100810.19;5133780;27;20122;-68
2021/10/07 07:54:03;;;;;;;22.15;13.20;;;;;;;12.16;100.00;100808.31;5133686;27;20043;-78
2021/10/07 07:56:33;;;;;;;20.10;13.32;;;;;;;12.31;100.00;100807.41;5134060;28;20042;-68
2021/10/07 07:59:01;;;;;;;19.63;12.52;;;;;;;12.46;100.00;100816.38;5132149;27;20466;-74
2021/10/07 08:01:31;;;;;;;18.13;11.82;;;;;;;12.45;100.00;100809.28;5133989;28;20039;-67
2021/10/07 08:03:59;;;;;;;16.33;11.40;;;;;;;12.55;100.00;100813.16;5133678;27;20529;-66
2021/10/07 08:06:28;;;;;;;22.48;12.82;;;;;;;12.63;100.00;100814.47;5133944;27;20039;-66
2021/10/07 08:08:56;;;;;;;21.48;11.80;;;;;;;12.55;100.00;100804.25;5137945;27;20047;-68
2021/10/07 08:11:25;;;;;;;17.83;11.02;;;;;;;12.74;100.00;100806.66;5137725;27;20074;-67
2021/10/07 08:13:55;;;;;;;16.45;10.80;;;;;;;12.59;100.00;100814.69;5137801;27;20054;-67
2021/10/07 08:16:23;;;;;;;21.02;12.13;;;;;;;12.78;100.00;100805.53;5137322;27;20077;-68
2021/10/07 08:18:52;;;;;;;16.92;10.43;;;;;;;12.87;100.00;100813.03;5137219;27;20047;-67
2021/10/07 08:21:20;;;;;;;17.08;10.45;;;;;;;12.94;100.00;100811.69;5137533;27;20065;-68
2021/10/07 08:23:49;;;;;;;18.30;11.77;;;;;;;12.95;100.00;100808.06;5137747;27;20043;-67
2021/10/07 08:26:17;;;;;;;14.65;9.70;;;;;;;12.86;100.00;100814.84;5137010;27;20044;-68
2021/10/07 08:28:47;;;;;;;17.67;10.20;;;;;;;12.80;100.00;100809.84;5137438;27;20043;-68
2021/10/07 08:31:15;;;;;;;15.05;10.10;;;;;;;12.90;100.00;100810.16;5137060;27;20055;-68
2021/10/07 08:33:44;;;;;;;16.65;9.75;;;;;;;12.84;100.00;100813.22;5137543;27;20039;-68
2021/10/07 08:36:12;;;;;;;14.38;10.07;;;;;;;12.98;100.00;100813.22;5136971;27;20435;-67
2021/10/07 08:38:41;;;;;;;16.80;9.85;;;;;;;13.08;100.00;100819.72;5137420;27;20040;-68
2021/10/07 08:41:09;;;;;;;15.45;9.32;;;;;;;13.10;100.00;100819.63;5136520;27;20035;-68
2021/10/07 08:43:38;;;;;;;17.23;9.18;;;;;;;13.22;100.00;100818.03;5136419;27;20491;-67
2021/10/07 08:46:12;;;;;;;17.83;9.73;;;;;;;13.27;100.00;100814.13;5136092;27;20433;-68
2021/10/07 08:48:41;;;;;;;19.50;10.32;;;;;;;13.48;100.00;100821.78;5136039;27;20039;-67
2021/10/07 08:51:09;;;;;;;22.17;9.45;;;;;;;13.55;100.00;100810.56;5135914;27;20047;-68
2021/10/07 08:53:37;;;;;;;17.00;10.00;;;;;;;13.61;100.00;100818.25;5136153;27;20039;-68
2021/10/07 08:56:06;;;;;;;14.35;8.98;;;;;;;13.36;100.00;100826.94;5135519;27;20448;-72
2021/10/07 08:58:34;;;;;;;16.13;8.93;;;;;;;13.45;100.00;100828.19;5135921;27;20050;-67
2021/10/07 09:01:06;;;;;;;17.65;8.73;;;;;;;13.38;100.00;100826.84;5136402;27;20068;-66
2021/10/07 09:03:42;;;;;;;13.52;8.80;;;;;;;13.30;100.00;100823.78;5136419;27;20064;-67
2021/10/07 09:06:15;;;;;;;16.13;9.52;;;;;;;13.41;100.00;100829.34;5135949;27;20039;-69
2021/10/07 09:08:46;;;;;;;18.55;9.48;;;;;;;13.55;100.00;100831.16;5136292;27;20544;-66
2021/10/07 09:11:35;;;;;;;15.02;8.93;;;;;;;13.64;100.00;100823.41;5136558;27;20107;-67
2021/10/07 09:14:09;;;;;;;12.82;7.50;;;;;;;13.49;100.00;100823.50;5131984;27;20081;-67
2021/10/07 09:16:44;;;;;;;16.17;9.13;;;;;;;13.51;100.00;100817.09;5136643;27;20099;-67
2021/10/07 09:19:16;;;;;;;17.10;9.40;;;;;;;13.51;100.00;100822.47;5135165;27;20438;-68
2021/10/07 09:21:46;;;;;;;13.93;9.15;;;;;;;13.86;100.00;100816.66;5136836;27;20046;-66
2021/10/07 09:24:37;;;;;;;15.40;9.13;;;;;;;13.97;100.00;100824.84;5136107;27;20039;-66
2021/10/07 09:27:11;;;;;;;14.25;8.30;;;;;;;13.78;100.00;100813.59;5136624;27;20039;-66
2021/10/07 09:29:43;;;;;;;14.07;8.82;;;;;;;14.06;100.00;100823.38;5136092;27;20472;-68
2021/10/07 09:32:13;;;;;;;13.23;8.35;;;;;;;13.96;100.00;100818.63;5136061;27;20063;-68
2021/10/07 09:34:48;;;;;;;19.02;8.68;;;;;;;13.99;100.00;100817.56;5136455;27;20480;-67
2021/10/07 09:37:25;;;;;;;14.40;8.38;;;;;;;13.80;100.00;100808.97;5135965;27;20043;-68
2021/10/07 09:39:55;;;;;;;14.48;7.68;;;;;;;13.91;100.00;100814.53;5136461;27;20032;-67
2021/10/07 09:42:27;;;;;;;14.77;8.20;;;;;;;13.45;100.00;100812.13;5135845;27;20062;-68
2021/10/07 09:45:12;;;;;;;15.55;8.15;;;;;;;13.77;100.00;100806.50;5136340;27;20396;-67
2021/10/07 09:47:42;;;;;;;12.65;8.23;;;;;;;13.78;100.00;100802.88;5136173;27;20093;-67
2021/10/07 09:50:19;;;;;;;19.75;8.65;;;;;;;13.82;100.00;100797.22;5135623;27;20035;-68
2021/10/07 09:52:53;;;;;;;13.57;7.72;;;;;;;13.89;100.00;100795.84;5135917;27;20039;-67
2021/10/07 09:55:23;;;;;;;13.75;7.75;;;;;;;13.97;100.00;100798.03;5135478;27;20038;-67
2021/10/07 09:57:55;;;;;;;11.18;7.53;;;;;;;13.90;100.00;100807.47;5135675;27;20047;-67
2021/10/07 10:00:27;;;;;;;13.23;7.18;;;;;;;13.91;100.00;100801.13;5135226;27;20047;-67
2021/10/07 10:02:57;;;;;;;14.55;8.05;;;;;;;14.08;100.00;100800.00;5135382;27;20039;-67
2021/10/07 10:05:28;;;;;;;12.25;7.85;;;;;;;14.29;100.00;100803.97;5135271;27;20441;-67
2021/10/07 10:07:56;;;;;;;17.45;8.20;;;;;;;14.32;100.00;100804.59;5135447;27;20047;-68
2021/10/07 10:10:24;;;;;;;14.95;8.57;;;;;;;14.53;100.00;100796.09;5135132;27;20050;-67
2021/10/07 10:12:53;;;;;;;15.23;8.45;;;;;;;14.48;96.73;100803.63;5135500;27;20488;-67
2021/10/07 10:15:22;;;;;;;10.95;7.00;;;;;;;14.44;96.15;100796.69;5134904;27;20043;-67
2021/10/07 10:17:52;;;;;;;14.15;8.32;;;;;;;14.28;96.57;100786.13;5135423;27;20043;-68
2021/10/07 10:20:23;;;;;;;12.05;7.30;;;;;;;14.42;97.09;100798.63;5134501;27;20051;-69
2021/10/07 10:22:58;;;;;;;13.27;8.35;;;;;;;14.51;96.82;100798.03;5134625;27;20039;-68
2021/10/07 10:25:28;;;;;;;17.08;9.35;;;;;;;14.46;98.34;100802.84;5134009;27;20047;-68
2021/10/07 10:27:59;;;;;;;14.05;8.38;;;;;;;14.49;97.13;100792.78;5134221;27;20092;-66
2021/10/07 10:30:31;;;;;;;12.93;7.40;;;;;;;14.58;95.92;100788.59;5133744;27;20047;-67
2021/10/07 10:33:02;;;;;;;14.35;8.02;;;;;;;14.46;96.81;100781.38;5134819;27;20066;-68
2021/10/07 10:35:44;;;;;;;13.10;8.00;;;;;;;14.55;98.18;100794.16;5134224;27;20058;-68
2021/10/07 10:38:15;;;;;;;12.95;7.63;;;;;;;14.37;95.94;100790.00;5134265;27;20059;-69
2021/10/07 10:40:43;;;;;;;11.93;7.05;;;;;;;14.35;96.29;100797.31;5134295;27;20096;-67
2021/10/07 10:43:26;;;;;;;13.32;8.02;;;;;;;14.37;96.48;100790.00;5133806;27;20047;-69
2021/10/07 10:46:15;;;;;;;16.58;7.55;;;;;;;14.50;97.17;100788.25;5134231;27;20487;-67
2021/10/07 10:49:02;;;;;;;12.40;8.10;;;;;;;14.66;97.39;100782.69;5132582;27;20050;-68
2021/10/07 10:51:33;;;;;;;15.00;7.80;;;;;;;14.71;97.50;100783.25;5134270;27;20067;-68
2021/10/07 10:54:08;;;;;;;13.10;8.15;;;;;;;14.84;96.31;100790.34;5134472;27;20429;-68
2021/10/07 10:56:57;;;;;;;12.90;7.90;;;;;;;14.81;95.64;100784.34;5134384;27;20039;-68
2021/10/07 10:59:28;;;;;;;15.30;8.57;;;;;;;14.88;97.66;100778.44;5134157;27;20476;-67
2021/10/07 11:02:25;;;;;;;13.20;7.88;;;;;;;14.56;97.38;100783.31;5134435;27;20100;-67
2021/10/07 11:04:57;;;;;;;13.20;8.32;;;;;;;14.96;95.97;100787.75;5134546;27;20046;-68
2021/10/07 11:07:30;;;;;;;11.43;8.18;;;;;;;14.86;96.79;100788.44;5132716;27;20107;-68
2021/10/07 11:10:06;;;;;;;14.57;7.22;;;;;;;15.00;92.94;100791.97;5133304;27;20054;-67
2021/10/07 11:12:53;;;;;;;15.45;7.93;;;;;;;14.85;93.24;100796.56;5134259;27;20526;-67
2021/10/07 11:15:23;;;;;;;11.10;7.40;;;;;;;15.15;90.97;100785.50;5134025;27;20545;-68
2021/10/07 11:17:51;;;;;;;13.15;6.70;;;;;;;15.09;86.66;100788.63;5134006;27;20043;-67
2021/10/07 11:20:23;;;;;;;11.95;7.70;;;;;;;15.07;86.13;100779.84;5133591;27;20436;-67